Time;durP1;ratioP1;P1;durP2;ratioP2;P2;SDS_P1;SDS_P2;PMS_P1;PMS_P2;Temp;Humidity;BMP_temperature;BMP_pressure;BME280_temperature;BME280_humidity;BME280_pressure;Samples;Min_cycle;Max_cycle;Signal;HPM_P1;HPM_P2
2021/07/26 00:00:35;;;;;;;13.20;12.15;;;16.20;81.60;;;;;;5028277;29;20052;-69
2021/07/26 00:03:08;;;;;;;13.00;12.00;;;16.20;82.00;;;;;;5030911;29;20049;-68
2021/07/26 00:05:40;;;;;;;12.40;11.40;;;16.20;81.90;;;;;;5030143;29;20045;-67
2021/07/26 00:08:11;;;;;;;12.35;11.35;;;16.20;82.00;;;;;;5030224;29;20053;-68
2021/07/26 00:10:43;;;;;;;12.65;11.60;;;16.20;81.80;;;;;;5026064;29;20125;-69
2021/07/26 00:13:15;;;;;;;12.82;11.70;;;16.20;81.00;;;;;;5030652;29;20573;-68
2021/07/26 00:15:47;;;;;;;12.05;11.05;;;16.20;81.40;;;;;;5028868;29;21083;-69
2021/07/26 00:18:19;;;;;;;12.52;11.52;;;16.20;81.90;;;;;;5029299;29;20588;-69
2021/07/26 00:20:51;;;;;;;12.85;11.85;;;16.20;82.70;;;;;;5026022;29;20049;-68
2021/07/26 00:23:23;;;;;;;12.38;11.38;;;16.30;82.80;;;;;;5028952;29;20072;-68
2021/07/26 00:25:55;;;;;;;12.45;11.48;;;16.30;82.60;;;;;;5030677;29;20073;-67
2021/07/26 00:28:27;;;;;;;12.68;11.48;;;16.30;82.50;;;;;;5028063;29;20049;-68
2021/07/26 00:30:59;;;;;;;12.68;11.57;;;16.30;83.20;;;;;;5029071;29;20135;-70
2021/07/26 00:34:09;;;;;;;12.40;11.18;;;16.30;83.10;;;;;;5032605;29;20069;-68
2021/07/26 00:36:42;;;;;;;;;;;16.30;83.20;;;;;;5028191;29;20081;-68
2021/07/26 00:39:17;;;;;;;12.15;11.15;;;16.30;83.00;;;;;;5029710;29;20015;-68
2021/07/26 00:41:49;;;;;;;12.85;11.75;;;16.30;84.20;;;;;;5028057;29;20049;-69
2021/07/26 00:44:23;;;;;;;13.43;12.32;;;16.20;83.70;;;;;;5032350;29;20108;-69
2021/07/26 00:46:56;;;;;;;13.48;12.38;;;16.20;83.60;;;;;;5029298;29;20527;-70
2021/07/26 00:49:29;;;;;;;12.60;11.60;;;16.20;83.50;;;;;;5031323;29;20093;-70
2021/07/26 00:52:02;;;;;;;13.48;12.25;;;16.20;84.10;;;;;;5033442;29;20195;-70
2021/07/26 00:54:36;;;;;;;13.15;11.95;;;16.20;85.10;;;;;;5031397;29;20080;-70
2021/07/26 00:57:08;;;;;;;13.30;12.30;;;16.20;85.30;;;;;;5029916;29;20080;-68
2021/07/26 00:59:40;;;;;;;13.95;12.68;;;16.20;84.40;;;;;;5031042;29;20187;-71
2021/07/26 01:02:12;;;;;;;13.77;11.80;;;16.20;85.30;;;;;;5027072;29;20041;-69
2021/07/26 01:04:44;;;;;;;13.23;12.20;;;16.20;84.60;;;;;;5030125;29;20509;-69
2021/07/26 01:07:16;;;;;;;13.57;12.55;;;16.20;84.70;;;;;;5029107;29;20687;-69
2021/07/26 01:09:48;;;;;;;12.85;11.85;;;16.30;83.50;;;;;;5030419;29;20041;-69
2021/07/26 01:12:20;;;;;;;13.45;12.45;;;16.20;82.80;;;;;;5030736;29;20071;-70
2021/07/26 01:14:53;;;;;;;17.17;12.77;;;16.20;83.30;;;;;;5032882;29;20372;-69
2021/07/26 01:17:31;;;;;;;13.18;12.18;;;16.20;84.00;;;;;;5030189;29;20140;-69
2021/07/26 01:20:05;;;;;;;13.70;12.63;;;16.20;84.80;;;;;;5030588;29;20049;-70
2021/07/26 01:22:36;;;;;;;14.30;13.00;;;16.20;87.50;;;;;;5030516;29;20117;-69
2021/07/26 01:25:09;;;;;;;13.88;12.75;;;16.10;88.00;;;;;;5031560;29;20045;-69
2021/07/26 01:27:41;;;;;;;13.98;12.68;;;16.10;86.70;;;;;;5030299;29;20170;-70
2021/07/26 01:30:13;;;;;;;14.57;13.18;;;16.10;87.60;;;;;;5030713;29;20520;-70
2021/07/26 01:32:45;;;;;;;13.40;12.30;;;16.10;86.20;;;;;;5029157;29;20073;-69
2021/07/26 01:35:17;;;;;;;15.43;12.93;;;16.20;86.30;;;;;;5029887;29;20128;-70
2021/07/26 01:37:49;;;;;;;13.00;11.90;;;16.20;86.10;;;;;;5032521;29;20056;-70
2021/07/26 01:40:20;;;;;;;13.27;12.18;;;16.30;85.70;;;;;;5031618;29;20121;-70
2021/07/26 01:43:00;;;;;;;13.57;12.23;;;16.30;85.60;;;;;;5030138;29;20472;-69
2021/07/26 01:45:33;;;;;;;13.63;12.52;;;16.30;84.60;;;;;;5037624;29;20049;-70
2021/07/26 01:48:11;;;;;;;13.50;12.20;;;16.30;85.20;;;;;;5031802;29;20041;-70
2021/07/26 01:50:50;;;;;;;13.40;12.10;;;16.30;85.20;;;;;;5031749;29;20132;-70
2021/07/26 01:53:23;;;;;;;13.93;12.73;;;16.30;86.10;;;;;;5028792;29;20136;-70
2021/07/26 01:55:55;;;;;;;14.40;13.10;;;16.30;86.70;;;;;;5031548;29;20155;-70
2021/07/26 01:58:28;;;;;;;13.90;12.65;;;16.30;85.90;;;;;;5029403;29;20105;-70
2021/07/26 02:01:00;;;;;;;13.18;12.18;;;16.30;85.60;;;;;;5031744;29;20127;-70
2021/07/26 02:03:32;;;;;;;13.70;12.55;;;16.30;85.50;;;;;;5032277;29;20558;-70
2021/07/26 02:06:04;;;;;;;13.77;12.60;;;16.30;84.60;;;;;;5028259;29;20101;-70
2021/07/26 02:08:36;;;;;;;13.48;12.38;;;16.30;85.00;;;;;;5030579;29;20127;-70
2021/07/26 02:11:07;;;;;;;13.48;12.25;;;16.30;85.00;;;;;;5033160;29;20520;-70
2021/07/26 02:13:40;;;;;;;14.10;12.82;;;16.30;85.30;;;;;;5029586;29;20472;-69
2021/07/26 02:16:12;;;;;;;13.68;12.57;;;16.40;84.90;;;;;;5028641;29;20486;-70
2021/07/26 02:18:44;;;;;;;13.27;12.18;;;16.40;85.30;;;;;;5030975;29;20136;-70
2021/07/26 02:21:16;;;;;;;14.32;13.15;;;16.40;85.10;;;;;;5030051;29;20105;-69
2021/07/26 02:23:49;;;;;;;13.80;12.70;;;16.40;86.30;;;;;;5029728;29;20042;-69
2021/07/26 02:26:21;;;;;;;13.70;12.60;;;16.40;85.60;;;;;;5029196;29;20418;-71
2021/07/26 02:28:53;;;;;;;14.18;13.07;;;16.40;85.20;;;;;;5029775;29;20566;-70
2021/07/26 02:31:25;;;;;;;16.02;13.27;;;16.40;85.90;;;;;;5030440;29;20642;-70
2021/07/26 02:33:57;;;;;;;14.32;13.25;;;16.40;85.40;;;;;;5028280;29;20049;-70
2021/07/26 02:36:29;;;;;;;14.20;13.00;;;16.40;85.20;;;;;;5031285;29;20485;-70
2021/07/26 02:39:02;;;;;;;14.43;13.23;;;16.50;85.20;;;;;;5031656;29;20150;-70
2021/07/26 02:41:34;;;;;;;14.57;13.48;;;16.50;85.80;;;;;;5026550;29;20087;-71
2021/07/26 02:44:05;;;;;;;14.65;13.32;;;16.50;85.80;;;;;;5031588;29;20127;-70
2021/07/26 02:46:37;;;;;;;14.35;13.25;;;16.40;86.40;;;;;;5034287;29;20205;-69
2021/07/26 02:49:09;;;;;;;14.05;12.93;;;16.40;85.80;;;;;;5028153;29;20081;-69
2021/07/26 02:51:41;;;;;;;14.23;13.10;;;16.40;85.70;;;;;;5030201;29;20056;-70
2021/07/26 02:54:13;;;;;;;14.60;13.40;;;16.50;85.90;;;;;;5029279;29;20072;-71
2021/07/26 02:56:45;;;;;;;15.77;14.40;;;16.50;86.30;;;;;;5021755;29;20141;-69
2021/07/26 02:59:17;;;;;;;16.38;14.98;;;16.40;86.40;;;;;;5029329;29;20607;-69
2021/07/26 03:01:51;;;;;;;16.13;14.70;;;16.50;86.10;;;;;;5024992;29;20123;-70
2021/07/26 03:04:23;;;;;;;15.30;14.10;;;16.40;86.10;;;;;;5028092;29;20053;-69
2021/07/26 03:06:55;;;;;;;16.02;14.73;;;16.50;85.80;;;;;;5027652;29;20789;-69
2021/07/26 03:09:27;;;;;;;15.15;13.88;;;16.50;86.30;;;;;;5030600;29;20105;-69
2021/07/26 03:11:59;;;;;;;16.17;14.70;;;16.50;86.00;;;;;;5030229;29;20050;-68
2021/07/26 03:14:31;;;;;;;16.15;14.80;;;16.50;86.20;;;;;;5027300;29;20124;-69
2021/07/26 03:17:04;;;;;;;15.48;14.27;;;16.50;86.10;;;;;;5026003;29;20457;-70
2021/07/26 03:19:36;;;;;;;14.98;13.77;;;16.50;85.90;;;;;;5028863;29;20557;-70
2021/07/26 03:22:47;;;;;;;14.75;13.55;;;16.50;86.40;;;;;;5030862;29;20122;-69
2021/07/26 03:25:20;;;;;;;15.10;13.70;;;16.40;86.70;;;;;;5030518;29;20824;-70
2021/07/26 03:27:52;;;;;;;15.98;14.52;;;16.40;86.90;;;;;;5027380;29;20044;-70
2021/07/26 03:30:24;;;;;;;14.95;13.65;;;16.40;86.60;;;;;;5026133;29;21095;-69
2021/07/26 03:32:56;;;;;;;15.10;13.80;;;16.40;86.90;;;;;;5043038;29;20070;-69
2021/07/26 03:35:28;;;;;;;15.70;14.40;;;16.40;87.20;;;;;;5029164;29;20861;-69
2021/07/26 03:38:00;;;;;;;14.38;13.27;;;16.30;87.40;;;;;;5029520;29;20196;-69
2021/07/26 03:40:33;;;;;;;14.52;13.40;;;16.30;86.50;;;;;;5031403;29;20048;-69
2021/07/26 03:43:06;;;;;;;16.42;15.05;;;16.20;86.30;;;;;;5027577;29;20717;-70
2021/07/26 03:45:37;;;;;;;15.13;14.02;;;16.20;86.20;;;;;;5032387;29;20117;-70
2021/07/26 03:48:10;;;;;;;15.38;14.13;;;16.20;86.20;;;;;;5027228;29;20049;-69
2021/07/26 03:50:42;;;;;;;15.35;14.15;;;16.20;86.20;;;;;;5026450;29;20140;-70
2021/07/26 03:53:17;;;;;;;14.52;13.43;;;16.20;86.30;;;;;;5031367;29;20049;-70
2021/07/26 03:55:49;;;;;;;14.68;13.45;;;16.20;86.70;;;;;;5045523;29;20863;-72
2021/07/26 03:58:21;;;;;;;14.90;13.70;;;16.10;86.50;;;;;;5028212;29;20077;-70
2021/07/26 04:00:53;;;;;;;14.80;13.60;;;16.20;86.80;;;;;;5029644;29;20057;-70
2021/07/26 04:03:33;;;;;;;14.90;13.70;;;16.20;86.60;;;;;;5044154;29;20049;-70
2021/07/26 04:06:11;;;;;;;14.65;13.55;;;16.10;86.40;;;;;;5025919;29;20728;-70
2021/07/26 04:08:48;;;;;;;15.90;14.63;;;16.10;86.70;;;;;;5030394;29;20049;-70
2021/07/26 04:11:30;;;;;;;14.70;13.50;;;16.10;86.80;;;;;;5029851;29;20148;-69
2021/07/26 04:14:06;;;;;;;14.13;13.02;;;16.10;87.30;;;;;;5027568;29;20057;-69
2021/07/26 04:16:38;;;;;;;15.38;14.18;;;16.10;88.30;;;;;;5032781;29;20049;-69
2021/07/26 04:19:11;;;;;;;14.85;13.75;;;16.00;87.70;;;;;;5030513;29;20053;-70
2021/07/26 04:21:43;;;;;;;15.18;14.02;;;16.10;87.80;;;;;;5035620;29;20671;-70
2021/07/26 04:24:15;;;;;;;14.70;13.60;;;16.10;88.00;;;;;;5034788;29;20108;-69
2021/07/26 04:26:47;;;;;;;15.15;14.02;;;16.10;88.30;;;;;;5033360;29;20137;-70
2021/07/26 04:29:19;;;;;;;15.65;14.40;;;16.10;88.20;;;;;;5031593;29;20494;-69
2021/07/26 04:31:51;;;;;;;15.50;14.23;;;16.10;88.00;;;;;;5032212;29;20144;-69
2021/07/26 04:34:23;;;;;;;15.50;14.20;;;16.10;88.50;;;;;;5033669;29;20105;-69
2021/07/26 04:36:55;;;;;;;15.13;13.95;;;16.10;88.80;;;;;;5031177;29;20468;-70
2021/07/26 04:39:27;;;;;;;16.25;14.93;;;16.10;88.90;;;;;;5038994;29;20591;-70
2021/07/26 04:41:59;;;;;;;15.30;14.10;;;16.10;89.10;;;;;;5031459;29;20041;-69
2021/07/26 04:44:31;;;;;;;15.57;14.27;;;16.00;89.40;;;;;;5034907;29;20051;-73
2021/07/26 04:47:04;;;;;;;14.98;13.82;;;16.00;89.10;;;;;;5030034;29;20108;-72
2021/07/26 04:49:36;;;;;;;15.02;13.73;;;16.00;88.90;;;;;;5030883;29;20048;-72
2021/07/26 04:52:08;;;;;;;15.05;13.85;;;16.00;89.20;;;;;;5029650;29;20081;-72
2021/07/26 04:54:39;;;;;;;14.93;13.63;;;16.00;89.00;;;;;;5043400;29;20140;-72
2021/07/26 04:57:11;;;;;;;14.93;13.82;;;16.10;89.10;;;;;;5032465;29;20088;-71
2021/07/26 04:59:43;;;;;;;15.45;14.25;;;16.10;88.80;;;;;;5034459;29;20453;-72
2021/07/26 05:02:15;;;;;;;14.27;13.18;;;16.10;88.80;;;;;;5019241;29;20053;-72
2021/07/26 05:04:47;;;;;;;14.48;13.27;;;16.20;88.50;;;;;;5034848;29;20049;-74
2021/07/26 05:07:21;;;;;;;14.50;13.30;;;16.20;88.40;;;;;;5032230;29;20087;-73
2021/07/26 05:09:53;;;;;;;14.40;13.05;;;16.30;88.30;;;;;;5032046;29;20052;-74
2021/07/26 05:12:25;;;;;;;13.45;12.35;;;16.30;88.10;;;;;;5031006;29;20077;-74
2021/07/26 05:14:58;;;;;;;14.45;13.10;;;16.30;88.00;;;;;;5029432;29;20101;-74
2021/07/26 05:17:30;;;;;;;14.57;13.27;;;16.30;88.40;;;;;;5031643;29;20137;-74
2021/07/26 05:20:02;;;;;;;14.10;13.02;;;16.30;88.60;;;;;;5027882;29;20044;-72
2021/07/26 05:22:37;;;;;;;13.88;12.68;;;16.40;88.70;;;;;;5027897;29;20528;-74
2021/07/26 05:25:10;;;;;;;14.30;13.20;;;16.40;88.30;;;;;;5029719;29;20105;-75
2021/07/26 05:27:42;;;;;;;14.75;13.52;;;16.40;88.10;;;;;;5033217;29;20143;-75
2021/07/26 05:30:14;;;;;;;14.05;12.95;;;16.40;88.50;;;;;;5026555;29;20137;-74
2021/07/26 05:32:46;;;;;;;14.07;12.82;;;16.40;88.30;;;;;;5034424;29;20077;-74
2021/07/26 05:35:18;;;;;;;13.35;12.20;;;16.50;88.00;;;;;;5029434;29;20401;-74
2021/07/26 05:37:50;;;;;;;14.38;13.18;;;16.50;87.60;;;;;;5026370;29;20809;-74
2021/07/26 05:40:22;;;;;;;13.25;12.25;;;16.50;87.70;;;;;;5042696;29;20155;-74
2021/07/26 05:42:54;;;;;;;14.48;13.18;;;16.50;87.60;;;;;;5028612;29;20414;-73
2021/07/26 05:45:26;;;;;;;14.65;13.25;;;16.60;86.70;;;;;;5028386;29;20065;-74
2021/07/26 05:47:58;;;;;;;12.70;11.70;;;16.60;87.20;;;;;;5030844;29;20555;-74
2021/07/26 05:50:31;;;;;;;14.00;12.90;;;16.60;87.30;;;;;;5029174;29;20140;-74
2021/07/26 05:53:06;;;;;;;14.57;13.30;;;16.60;87.20;;;;;;5029491;29;20102;-74
2021/07/26 05:55:38;;;;;;;13.88;12.75;;;16.70;87.40;;;;;;5042604;29;20076;-74
2021/07/26 05:58:10;;;;;;;14.05;12.77;;;16.70;85.90;;;;;;5043106;29;20910;-73
2021/07/26 06:00:44;;;;;;;13.52;12.43;;;16.70;85.50;;;;;;5028717;29;20069;-74
2021/07/26 06:03:16;;;;;;;14.20;13.10;;;16.70;85.90;;;;;;5040585;29;20057;-73
2021/07/26 06:05:48;;;;;;;14.43;13.32;;;16.70;86.00;;;;;;5026121;29;20524;-73
2021/07/26 06:08:20;;;;;;;14.52;13.32;;;16.80;85.90;;;;;;5026525;29;20057;-73
2021/07/26 06:10:52;;;;;;;14.15;13.02;;;16.70;85.70;;;;;;5029354;29;20624;-71
2021/07/26 06:13:24;;;;;;;14.50;13.25;;;16.80;85.90;;;;;;5029228;29;20053;-72
2021/07/26 06:15:57;;;;;;;14.30;13.20;;;16.90;85.60;;;;;;5029086;29;20132;-72
2021/07/26 06:18:28;;;;;;;14.85;13.55;;;16.90;85.10;;;;;;5031072;29;20935;-71
2021/07/26 06:21:06;;;;;;;14.57;13.38;;;17.00;85.80;;;;;;5029084;29;20511;-72
2021/07/26 06:23:37;;;;;;;15.02;13.82;;;17.00;86.50;;;;;;5027427;29;20048;-72
2021/07/26 06:26:09;;;;;;;15.50;14.30;;;17.10;86.30;;;;;;5028301;29;20131;-71
2021/07/26 06:28:41;;;;;;;15.15;13.90;;;17.20;85.50;;;;;;5029608;29;20061;-71
2021/07/26 06:31:13;;;;;;;14.88;13.68;;;17.30;85.50;;;;;;5025669;29;20113;-71
2021/07/26 06:33:45;;;;;;;15.35;14.05;;;17.30;84.80;;;;;;5027650;29;20104;-71
2021/07/26 06:36:17;;;;;;;15.00;13.70;;;17.30;83.70;;;;;;5029456;29;20126;-72
2021/07/26 06:38:49;;;;;;;15.15;13.95;;;17.30;84.00;;;;;;5029996;29;20515;-72
2021/07/26 06:41:21;;;;;;;15.45;14.23;;;17.30;84.20;;;;;;5041397;29;20136;-72
2021/07/26 06:43:53;;;;;;;15.10;13.90;;;17.40;84.30;;;;;;5029892;29;20041;-71
2021/07/26 06:46:26;;;;;;;15.68;14.48;;;17.40;85.20;;;;;;5024285;29;20067;-70
2021/07/26 06:48:58;;;;;;;14.98;13.85;;;17.50;85.40;;;;;;5029557;29;20037;-72
2021/07/26 06:51:30;;;;;;;15.73;14.52;;;17.60;85.30;;;;;;5028733;29;20067;-71
2021/07/26 06:54:01;;;;;;;15.35;14.15;;;17.70;84.40;;;;;;5033792;29;20667;-72
2021/07/26 06:56:33;;;;;;;15.07;13.80;;;17.80;85.20;;;;;;5028872;29;20052;-71
2021/07/26 06:59:08;;;;;;;15.65;14.40;;;17.90;85.10;;;;;;5028767;29;20132;-72
2021/07/26 07:01:42;;;;;;;15.20;13.90;;;18.00;85.20;;;;;;5026145;29;20144;-72
2021/07/26 07:04:14;;;;;;;15.55;14.23;;;18.00;85.70;;;;;;5032398;29;20054;-72
2021/07/26 07:06:46;;;;;;;15.63;14.25;;;18.00;85.70;;;;;;5041342;29;20094;-72
2021/07/26 07:09:18;;;;;;;15.48;14.05;;;18.10;85.10;;;;;;5030127;29;20080;-71
2021/07/26 07:11:50;;;;;;;14.90;13.80;;;18.20;85.10;;;;;;5029063;29;20148;-72
2021/07/26 07:14:22;;;;;;;14.68;13.48;;;18.30;84.80;;;;;;5026521;29;20053;-72
2021/07/26 07:16:53;;;;;;;14.20;13.10;;;18.20;84.30;;;;;;5019863;29;20128;-72
2021/07/26 07:19:25;;;;;;;14.60;13.45;;;18.20;83.70;;;;;;5028590;29;20056;-72
2021/07/26 07:21:57;;;;;;;14.88;13.77;;;18.20;85.00;;;;;;5027730;29;20049;-72
2021/07/26 07:24:29;;;;;;;14.70;13.60;;;18.30;84.50;;;;;;5031709;29;20129;-71
2021/07/26 07:27:01;;;;;;;14.68;13.48;;;18.40;84.40;;;;;;5026164;29;20041;-72
2021/07/26 07:29:33;;;;;;;15.85;14.30;;;18.40;83.70;;;;;;5029426;29;20105;-74
2021/07/26 07:32:05;;;;;;;15.43;14.23;;;18.50;83.60;;;;;;4989344;29;1099599;-72
2021/07/26 07:34:39;;;;;;;15.55;14.35;;;18.70;82.90;;;;;;5021919;29;20048;-72
2021/07/26 07:37:11;;;;;;;14.95;13.68;;;18.90;82.90;;;;;;5027776;29;20084;-73
2021/07/26 07:39:42;;;;;;;15.50;14.40;;;19.10;81.20;;;;;;5030467;29;20073;-72
2021/07/26 07:42:14;;;;;;;16.20;15.00;;;19.20;81.80;;;;;;5029458;29;20137;-72
2021/07/26 07:44:47;;;;;;;15.25;14.15;;;19.40;80.20;;;;;;5030426;29;20481;-72
2021/07/26 07:47:19;;;;;;;15.80;14.70;;;19.60;79.30;;;;;;5031202;29;20160;-72
2021/07/26 07:49:51;;;;;;;15.63;14.43;;;19.80;79.10;;;;;;5030508;29;20049;-74
2021/07/26 07:52:23;;;;;;;15.77;14.50;;;19.90;77.30;;;;;;5030871;29;20064;-73
2021/07/26 07:54:56;;;;;;;15.57;14.38;;;20.00;77.90;;;;;;5030764;29;20069;-74
2021/07/26 07:57:29;;;;;;;15.43;14.23;;;20.10;77.70;;;;;;5027221;29;20132;-74
2021/07/26 08:00:02;;;;;;;15.80;14.52;;;20.20;78.50;;;;;;5028415;29;20926;-74
2021/07/26 08:02:35;;;;;;;15.85;14.55;;;20.40;76.50;;;;;;5032098;29;20136;-74
2021/07/26 08:05:08;;;;;;;15.38;14.07;;;20.50;77.60;;;;;;5030845;29;20100;-73
2021/07/26 08:07:39;;;;;;;15.98;14.77;;;20.70;74.90;;;;;;5030138;29;20463;-73
2021/07/26 08:10:13;;;;;;;16.17;14.98;;;20.80;75.50;;;;;;5027714;29;20058;-72
2021/07/26 08:12:46;;;;;;;16.52;15.32;;;20.90;74.60;;;;;;5033388;29;20124;-72
2021/07/26 08:15:18;;;;;;;16.38;15.05;;;21.00;74.30;;;;;;5046331;29;20132;-75
2021/07/26 08:17:50;;;;;;;16.48;15.27;;;21.20;75.00;;;;;;5038714;29;20596;-72
2021/07/26 08:20:22;;;;;;;16.33;15.13;;;21.30;74.10;;;;;;5029097;29;20121;-73
2021/07/26 08:22:54;;;;;;;16.80;15.60;;;21.40;72.60;;;;;;5035403;29;20053;-71
2021/07/26 08:25:28;;;;;;;16.85;15.65;;;21.50;72.50;;;;;;5030256;29;20208;-71
2021/07/26 08:28:00;;;;;;;16.65;15.45;;;21.70;71.40;;;;;;5030766;29;20128;-71
2021/07/26 08:30:34;;;;;;;16.98;15.70;;;21.80;70.30;;;;;;5029749;29;20136;-73
2021/07/26 08:33:06;;;;;;;15.48;14.23;;;21.90;69.50;;;;;;5030132;29;20867;-72
2021/07/26 08:35:38;;;;;;;15.27;14.18;;;21.90;67.20;;;;;;5026329;29;20051;-71
2021/07/26 08:38:10;;;;;;;16.15;15.05;;;22.00;67.00;;;;;;5030124;29;20044;-73
2021/07/26 08:40:44;;;;;;;16.42;15.10;;;22.10;65.50;;;;;;5029519;29;20050;-72
2021/07/26 08:43:16;;;;;;;15.43;14.27;;;22.20;69.00;;;;;;5030975;29;20049;-73
2021/07/26 08:45:48;;;;;;;15.77;14.57;;;22.20;68.00;;;;;;5029688;29;20184;-74
2021/07/26 08:48:24;;;;;;;15.25;14.15;;;22.20;67.50;;;;;;5024015;29;20072;-71
2021/07/26 08:50:57;;;;;;;15.50;14.35;;;22.20;68.40;;;;;;5028843;29;20053;-73
2021/07/26 08:53:33;;;;;;;15.32;14.23;;;22.20;70.30;;;;;;5031707;29;20108;-72
2021/07/26 08:56:06;;;;;;;15.90;14.68;;;22.30;70.00;;;;;;5031266;29;20049;-73
2021/07/26 08:58:39;;;;;;;15.70;14.60;;;22.40;67.90;;;;;;5029220;29;20104;-73
2021/07/26 09:01:14;;;;;;;15.98;14.77;;;22.50;69.90;;;;;;5030055;29;20147;-73
2021/07/26 09:03:50;;;;;;;15.13;13.93;;;22.70;67.90;;;;;;5028387;29;20057;-74
2021/07/26 09:06:24;;;;;;;16.02;14.75;;;22.70;67.10;;;;;;5028690;29;20524;-73
2021/07/26 09:08:58;;;;;;;15.50;14.30;;;22.60;65.40;;;;;;5042597;29;20045;-73
2021/07/26 09:11:43;;;;;;;15.38;14.18;;;22.50;66.20;;;;;;5032734;29;20619;-74
2021/07/26 09:14:38;;;;;;;15.27;14.18;;;22.50;67.00;;;;;;5028590;29;20109;-74
2021/07/26 09:17:10;;;;;;;15.77;14.57;;;22.50;67.40;;;;;;5028252;29;20676;-73
2021/07/26 09:19:57;;;;;;;15.68;14.57;;;22.50;67.90;;;;;;5028341;29;20168;-73
2021/07/26 09:22:34;;;;;;;16.63;15.43;;;22.60;68.80;;;;;;5043208;29;20539;-73
2021/07/26 09:25:14;;;;;;;15.95;14.80;;;22.80;67.80;;;;;;5031096;29;20061;-72
2021/07/26 09:28:13;;;;;;;16.83;15.57;;;23.10;68.40;;;;;;5030396;29;20045;-73
2021/07/26 09:30:49;;;;;;;16.30;15.00;;;23.30;65.70;;;;;;5029671;29;20061;-74
2021/07/26 09:33:31;;;;;;;17.27;15.87;;;23.50;67.10;;;;;;5029393;29;20041;-74
2021/07/26 09:36:12;;;;;;;17.17;15.75;;;23.60;67.60;;;;;;5027562;29;20289;-74
2021/07/26 09:38:57;;;;;;;17.10;15.90;;;23.70;65.50;;;;;;5031206;29;20105;-74
2021/07/26 09:41:46;;;;;;;17.38;15.98;;;23.90;66.10;;;;;;5026177;29;20140;-73
2021/07/26 09:44:26;;;;;;;18.27;16.87;;;24.00;63.90;;;;;;5029042;29;20056;-73
2021/07/26 09:47:17;;;;;;;;;;;24.00;67.30;;;;;;5031988;29;20052;-73
2021/07/26 09:49:49;;;;;;;16.83;15.63;;;24.10;65.50;;;;;;5031721;29;19956;-73
2021/07/26 09:52:22;;;;;;;17.40;15.98;;;24.10;66.60;;;;;;5031136;29;20053;-74
2021/07/26 09:54:55;;;;;;;16.38;15.18;;;24.30;65.90;;;;;;5030361;29;20092;-74
2021/07/26 09:57:28;;;;;;;16.50;15.30;;;24.30;64.70;;;;;;5028434;29;20048;-74
2021/07/26 10:00:02;;;;;;;17.27;16.02;;;24.50;65.40;;;;;;5028323;29;20124;-73
2021/07/26 10:02:35;;;;;;;18.52;16.92;;;24.50;64.80;;;;;;5030337;29;20133;-73
2021/07/26 10:05:11;;;;;;;17.65;16.35;;;24.60;65.30;;;;;;5029209;29;20555;-72
2021/07/26 10:07:44;;;;;;;18.13;16.83;;;24.70;64.00;;;;;;5031735;29;20469;-74
2021/07/26 10:10:16;;;;;;;17.17;15.98;;;24.80;65.00;;;;;;5041260;29;20094;-75
2021/07/26 10:12:50;;;;;;;17.77;16.48;;;25.00;63.10;;;;;;5029441;29;20111;-74
2021/07/26 10:15:22;;;;;;;18.30;17.00;;;25.10;64.70;;;;;;5027900;29;20131;-73
2021/07/26 10:17:54;;;;;;;18.08;16.73;;;25.20;61.90;;;;;;5033281;29;20125;-73
2021/07/26 10:20:28;;;;;;;18.90;17.38;;;25.20;64.20;;;;;;5028075;29;20159;-73
2021/07/26 10:23:17;;;;;;;19.00;17.38;;;25.30;63.60;;;;;;5031072;29;20068;-73
2021/07/26 10:25:55;;;;;;;18.63;17.23;;;25.40;64.50;;;;;;5029310;29;20073;-73
2021/07/26 10:28:31;;;;;;;17.88;16.58;;;25.50;63.40;;;;;;5031085;29;20041;-73
2021/07/26 10:31:32;;;;;;;18.13;16.80;;;25.50;63.10;;;;;;5042407;29;20620;-73
2021/07/26 10:34:08;;;;;;;19.10;17.70;;;25.60;63.90;;;;;;5018291;29;20575;-74
2021/07/26 10:36:43;;;;;;;19.00;17.60;;;25.60;61.80;;;;;;5029190;29;20524;-74
2021/07/26 10:39:23;;;;;;;18.77;17.38;;;25.60;63.40;;;;;;5030470;29;20045;-74
2021/07/26 10:41:55;;;;;;;;;;;25.60;62.30;;;;;;5027992;29;20060;-73
2021/07/26 10:44:27;;;;;;;18.27;16.90;;;25.60;63.50;;;;;;5030914;29;19928;-73
2021/07/26 10:47:03;;;;;;;18.50;17.20;;;25.60;64.50;;;;;;5028758;29;20057;-73
2021/07/26 10:49:42;;;;;;;17.77;16.45;;;25.60;63.90;;;;;;5027629;29;20143;-73
2021/07/26 10:52:26;;;;;;;18.35;17.02;;;25.70;63.80;;;;;;5034765;29;20140;-73
2021/07/26 10:54:59;;;;;;;19.33;17.77;;;25.70;63.90;;;;;;5026602;29;20472;-72
2021/07/26 10:57:44;;;;;;;18.30;17.00;;;25.70;62.10;;;;;;5027816;29;20053;-72
2021/07/26 11:00:25;;;;;;;18.35;16.95;;;25.60;62.30;;;;;;5024064;29;20052;-73
2021/07/26 11:02:57;;;;;;;;;;;25.70;62.20;;;;;;5026407;29;20069;-73
2021/07/26 11:05:29;;;;;;;18.40;17.00;;;25.70;63.00;;;;;;5026307;29;20313;-73
2021/07/26 11:08:13;;;;;;;18.98;17.48;;;25.70;62.20;;;;;;5026426;29;20154;-71
2021/07/26 11:10:47;;;;;;;18.92;17.45;;;25.80;61.20;;;;;;5024913;29;20176;-72
2021/07/26 11:13:19;;;;;;;18.25;16.77;;;25.90;61.30;;;;;;5028125;29;20038;-74
2021/07/26 11:15:52;;;;;;;17.90;16.63;;;26.00;61.80;;;;;;5025071;29;20052;-73
2021/07/26 11:18:43;;;;;;;18.30;17.00;;;26.00;61.90;;;;;;5027261;29;20053;-72
2021/07/26 11:21:21;;;;;;;18.75;17.35;;;26.00;63.10;;;;;;5028592;29;20511;-74
2021/07/26 11:23:54;;;;;;;18.40;17.10;;;26.10;61.90;;;;;;5027446;29;20045;-75
2021/07/26 11:26:31;;;;;;;18.65;17.35;;;26.10;61.10;;;;;;5034138;29;20045;-74
2021/07/26 11:29:09;;;;;;;18.10;16.70;;;26.10;61.20;;;;;;5028214;29;20072;-74
2021/07/26 11:31:41;;;;;;;19.20;17.77;;;26.20;62.10;;;;;;5027659;29;20053;-74
2021/07/26 11:34:14;;;;;;;18.45;17.10;;;26.20;60.50;;;;;;5027651;29;20093;-75
2021/07/26 11:37:19;;;;;;;18.77;17.45;;;26.20;60.40;;;;;;5024061;29;20112;-74
2021/07/26 11:39:53;;;;;;;18.95;17.38;;;26.20;61.00;;;;;;5009855;29;20145;-75
2021/07/26 11:42:45;;;;;;;18.23;16.83;;;26.30;60.30;;;;;;5027025;29;20045;-73
2021/07/26 11:45:19;;;;;;;18.20;16.90;;;26.30;60.40;;;;;;5033005;29;20085;-73
2021/07/26 11:47:57;;;;;;;18.60;17.10;;;26.30;60.20;;;;;;5028458;29;20041;-74
2021/07/26 11:50:40;;;;;;;18.63;17.23;;;26.40;58.60;;;;;;5029658;29;20164;-73
2021/07/26 11:53:12;;;;;;;19.23;17.83;;;26.30;61.10;;;;;;5028562;29;20050;-74
2021/07/26 11:55:44;;;;;;;18.90;17.40;;;26.40;57.80;;;;;;5026664;29;20163;-75
2021/07/26 11:58:16;;;;;;;19.33;18.02;;;26.50;58.20;;;;;;5030481;29;20112;-74
2021/07/26 12:00:48;;;;;;;19.63;18.23;;;26.60;59.40;;;;;;5026212;29;20456;-74
2021/07/26 12:03:23;;;;;;;19.23;17.83;;;26.70;59.40;;;;;;5028999;29;20128;-74
2021/07/26 12:06:02;;;;;;;19.90;18.30;;;26.80;58.90;;;;;;5025785;29;20045;-74
2021/07/26 12:08:34;;;;;;;19.77;18.37;;;27.00;59.00;;;;;;5030608;29;20052;-75
2021/07/26 12:11:19;;;;;;;19.65;17.95;;;27.10;59.60;;;;;;5030534;29;20538;-72
2021/07/26 12:13:51;;;;;;;19.25;17.85;;;27.20;59.20;;;;;;5026698;29;20101;-74
2021/07/26 12:16:23;;;;;;;19.35;17.88;;;27.10;58.00;;;;;;5030134;29;20102;-75
2021/07/26 12:19:12;;;;;;;19.10;17.63;;;26.80;58.70;;;;;;5026048;29;20156;-74
2021/07/26 12:21:44;;;;;;;18.33;17.02;;;26.50;61.00;;;;;;5029279;29;20049;-76
2021/07/26 12:24:47;;;;;;;18.17;16.88;;;26.30;60.40;;;;;;5026544;29;21009;-74
2021/07/26 12:27:34;;;;;;;19.20;17.80;;;26.10;61.50;;;;;;5035311;29;20079;-74
2021/07/26 12:30:12;;;;;;;19.20;17.70;;;26.40;62.40;;;;;;5027095;29;20080;-74
2021/07/26 12:32:48;;;;;;;18.75;17.45;;;26.60;60.90;;;;;;5028263;29;20108;-73
2021/07/26 12:35:28;;;;;;;18.90;17.50;;;26.60;60.70;;;;;;5025732;29;20058;-74
2021/07/26 12:38:05;;;;;;;18.67;17.38;;;26.40;60.20;;;;;;5035409;29;20057;-73
2021/07/26 12:40:39;;;;;;;18.35;17.05;;;26.30;61.60;;;;;;5038050;29;20694;-72
2021/07/26 12:43:12;;;;;;;18.02;16.63;;;26.20;62.90;;;;;;5033754;29;20508;-72
2021/07/26 12:46:05;;;;;;;18.88;17.48;;;26.10;64.20;;;;;;5031618;29;20101;-72
2021/07/26 12:48:38;;;;;;;18.85;17.45;;;26.00;61.60;;;;;;5033683;29;20124;-74
2021/07/26 12:51:10;;;;;;;18.25;16.95;;;26.10;62.60;;;;;;5031107;29;20081;-74
2021/07/26 12:53:51;;;;;;;18.73;17.35;;;26.20;63.30;;;;;;5029445;29;20140;-73
2021/07/26 12:56:22;;;;;;;18.88;17.58;;;26.30;63.00;;;;;;5029168;29;20050;-72
2021/07/26 12:58:54;;;;;;;18.80;17.50;;;26.30;64.80;;;;;;5032880;29;20109;-73
2021/07/26 13:01:28;;;;;;;18.75;17.45;;;26.30;61.60;;;;;;5031134;29;20152;-72
2021/07/26 13:04:00;;;;;;;18.65;17.35;;;26.20;63.40;;;;;;5029766;29;20069;-72